Time;durP1;ratioP1;P1;durP2;ratioP2;P2;SDS_P1;SDS_P2;PMS_P1;PMS_P2;Temp;Humidity;BMP_temperature;BMP_pressure;BME280_temperature;BME280_humidity;BME280_pressure;Samples;Min_cycle;Max_cycle;Signal;HPM_P1;HPM_P2
2022/10/21 00:00:52;;;;;;;;;;;;;;;8.11;37.38;102022.44;5037326;28;19921;-83
2022/10/21 00:03:20;;;;;;;;;;;;;;;8.17;37.25;102018.44;5017531;28;20077;-82
2022/10/21 00:05:46;;;;;;;;;;;;;;;8.12;37.10;102029.50;5022186;28;19970;-83
2022/10/21 00:08:11;;;;;;;;;;;;;;;8.20;37.12;102029.81;4997979;28;20032;-83
2022/10/21 00:10:37;;;;;;;;;;;;;;;8.18;37.05;102014.81;5018322;28;20042;-82
2022/10/21 00:13:02;;;;;;;;;;;;;;;8.19;36.97;102021.88;5027415;28;20365;-82
2022/10/21 00:15:29;;;;;;;;;;;;;;;8.23;37.04;102018.00;5014411;28;19932;-84
2022/10/21 00:17:54;;;;;;;;;;;;;;;8.17;37.16;102013.09;5021494;28;19936;-84
2022/10/21 00:20:20;;;;;;;;;;;;;;;8.18;37.38;102010.31;5013801;28;19920;-83
2022/10/21 00:22:45;;;;;;;;;;;;;;;8.18;37.43;102017.50;5040662;28;19917;-83
2022/10/21 00:25:10;;;;;;;;;;;;;;;8.25;37.63;102016.91;5025196;28;20066;-83
2022/10/21 00:27:36;;;;;;;;;;;;;;;8.22;37.75;102019.84;5016001;28;20021;-84
2022/10/21 00:30:02;;;;;;;;;;;;;;;8.29;37.65;102012.19;5010820;28;20266;-84
2022/10/21 00:32:27;;;;;;;;;;;;;;;8.19;37.93;102020.06;5030063;28;20006;-84
2022/10/21 00:34:52;;;;;;;;;;;;;;;8.21;38.08;102014.56;5032444;28;19933;-84
2022/10/21 00:37:18;;;;;;;;;;;;;;;8.20;38.31;102005.69;5029635;28;19925;-82
2022/10/21 00:39:44;;;;;;;;;;;;;;;8.19;38.62;102012.03;5023071;28;19921;-85
2022/10/21 00:42:13;;;;;;;;;;;;;;;8.17;38.83;102002.38;4997787;28;19920;-84
2022/10/21 00:44:39;;;;;;;;;;;;;;;8.11;39.18;101998.31;5006128;28;20541;-83
2022/10/21 00:47:05;;;;;;;;;;;;;;;8.12;39.15;102010.75;5033749;28;20412;-82
2022/10/21 00:49:37;;;;;;;;;;;;;;;8.08;39.30;102008.41;4986515;28;20273;-83
2022/10/21 00:52:03;;;;;;;;;;;;;;;8.08;39.43;102009.28;5032015;28;19917;-83
2022/10/21 00:54:28;;;;;;;;;;;;;;;8.02;39.60;102007.03;5040631;28;19940;-84
2022/10/21 00:56:54;;;;;;;;;;;;;;;8.04;39.63;102018.50;5039447;28;19917;-87
2022/10/21 00:59:20;;;;;;;;;;;;;;;7.99;39.84;102017.97;5017357;28;20030;-85
2022/10/21 01:01:46;;;;;;;;;;;;;;;7.98;39.76;102016.25;5012640;28;19964;-84
2022/10/21 01:04:12;;;;;;;;;;;;;;;7.96;39.74;102020.84;5021366;28;20024;-84
2022/10/21 01:06:37;;;;;;;;;;;;;;;7.92;40.10;102017.56;5037369;28;20091;-81
2022/10/21 01:09:02;;;;;;;;;;;;;;;7.83;40.24;102011.03;5030822;28;19922;-84
2022/10/21 01:11:28;;;;;;;;;;;;;;;7.90;40.38;102010.59;5042113;28;20440;-83
2022/10/21 01:14:11;;;;;;;;;;;;;;;7.87;40.61;102017.03;5005888;28;20444;-84
2022/10/21 01:16:40;;;;;;;;;;;;;;;7.78;40.40;102010.50;5026775;28;19967;-84
2022/10/21 01:19:11;;;;;;;;;;;;;;;7.77;40.61;102014.16;5026614;28;19932;-84
2022/10/21 01:21:38;;;;;;;;;;;;;;;7.68;40.84;102013.94;5036381;28;20404;-85
2022/10/21 01:24:09;;;;;;;;;;;;;;;7.62;41.06;102017.94;5032144;28;19918;-82
2022/10/21 01:26:43;;;;;;;;;;;;;;;7.63;41.03;102016.94;5046179;28;19998;-84
2022/10/21 01:29:18;;;;;;;;;;;;;;;7.68;40.85;102016.63;5029497;28;20016;-84
2022/10/21 01:31:45;;;;;;;;;;;;;;;7.74;40.71;102016.19;5032749;28;20374;-84
2022/10/21 01:34:16;;;;;;;;;;;;;;;7.64;41.15;102016.00;5028468;28;19921;-84
2022/10/21 01:36:45;;;;;;;;;;;;;;;7.69;41.30;102018.34;5028194;28;20166;-84
2022/10/21 01:39:25;;;;;;;;;;;;;;;7.68;41.39;102013.94;4994869;28;20945;-84
2022/10/21 01:41:57;;;;;;;;;;;;;;;7.64;41.24;102015.16;5048545;28;19921;-84
2022/10/21 01:44:26;;;;;;;;;;;;;;;7.59;41.35;102018.16;5026986;28;19921;-85
2022/10/21 01:46:55;;;;;;;;;;;;;;;7.56;41.16;102016.56;5041098;28;19999;-84
2022/10/21 01:49:40;;;;;;;;;;;;;;;7.59;41.13;102013.66;5014823;28;19933;-82
2022/10/21 01:52:05;;;;;;;;;;;;;;;7.63;41.05;102019.63;5018755;28;19917;-83
2022/10/21 01:54:34;;;;;;;;;;;;;;;7.57;41.27;102020.06;5007768;28;20071;-83
2022/10/21 01:57:00;;;;;;;;;;;;;;;7.57;41.34;102014.72;5027021;28;19921;-83
2022/10/21 01:59:25;;;;;;;;;;;;;;;7.57;41.61;102023.59;5030778;28;19966;-83
2022/10/21 02:01:51;;;;;;;;;;;;;;;7.54;41.64;102026.50;5014264;28;19926;-84
2022/10/21 02:04:16;;;;;;;;;;;;;;;7.43;41.72;102025.53;5034310;28;19924;-82
2022/10/21 02:06:42;;;;;;;;;;;;;;;7.48;41.75;102032.28;5043631;28;20015;-81
2022/10/21 02:09:07;;;;;;;;;;;;;;;7.42;41.76;102042.53;5015134;28;19991;-83
2022/10/21 02:11:33;;;;;;;;;;;;;;;7.38;41.91;102031.22;5021520;28;19960;-83
2022/10/21 02:14:00;;;;;;;;;;;;;;;7.38;41.72;102037.41;5024126;28;19917;-83
2022/10/21 02:16:27;;;;;;;;;;;;;;;7.45;41.59;102031.66;5017006;28;19941;-84
2022/10/21 02:18:55;;;;;;;;;;;;;;;7.37;42.09;102032.16;5002109;28;20015;-84
2022/10/21 02:21:21;;;;;;;;;;;;;;;7.38;41.92;102042.75;5030052;28;19921;-84
2022/10/21 02:23:54;;;;;;;;;;;;;;;7.41;41.70;102036.34;5042591;28;19949;-84
2022/10/21 02:26:21;;;;;;;;;;;;;;;7.31;42.08;102044.16;5048696;28;19987;-82
2022/10/21 02:28:47;;;;;;;;;;;;;;;7.34;41.97;102040.41;5016812;28;19921;-84
2022/10/21 02:31:29;;;;;;;;;;;;;;;7.25;42.30;102041.88;5038517;28;20308;-84
2022/10/21 02:33:54;;;;;;;;;;;;;;;7.33;42.07;102044.91;5033088;28;19929;-84
2022/10/21 02:36:39;;;;;;;;;;;;;;;7.29;42.15;102043.41;5038804;28;20399;-83
2022/10/21 02:39:10;;;;;;;;;;;;;;;7.30;42.38;102047.78;5021001;28;19929;-85
2022/10/21 02:41:35;;;;;;;;;;;;;;;7.30;42.39;102047.78;5046811;28;19960;-84
2022/10/21 02:44:01;;;;;;;;;;;;;;;7.26;42.25;102054.31;5030723;28;19960;-83
2022/10/21 02:46:34;;;;;;;;;;;;;;;7.24;42.38;102053.56;5046479;28;19917;-84
2022/10/21 02:48:59;;;;;;;;;;;;;;;7.22;42.46;102057.31;5028146;28;19933;-85
2022/10/21 02:51:26;;;;;;;;;;;;;;;7.17;42.48;102060.31;5012781;28;19917;-85
2022/10/21 02:53:52;;;;;;;;;;;;;;;7.13;42.45;102058.78;5042144;28;19956;-85
2022/10/21 02:56:17;;;;;;;;;;;;;;;7.09;42.64;102063.47;5046722;28;19960;-83
2022/10/21 02:58:43;;;;;;;;;;;;;;;7.13;42.75;102062.31;5024840;28;19935;-83
2022/10/21 03:01:08;;;;;;;;;;;;;;;7.11;42.73;102061.56;5036517;28;19921;-83
2022/10/21 03:03:33;;;;;;;;;;;;;;;7.08;42.69;102055.56;5037106;28;19974;-83
2022/10/21 03:05:59;;;;;;;;;;;;;;;7.06;42.71;102063.69;5031351;28;19917;-83
2022/10/21 03:08:24;;;;;;;;;;;;;;;7.04;42.60;102065.59;5028692;28;19999;-87
2022/10/21 03:10:50;;;;;;;;;;;;;;;7.06;42.70;102062.84;5053912;28;19920;-83
2022/10/21 03:13:16;;;;;;;;;;;;;;;7.01;42.56;102060.47;5040943;28;20459;-82
2022/10/21 03:15:42;;;;;;;;;;;;;;;6.98;42.75;102066.88;5036937;28;20016;-85
2022/10/21 03:18:08;;;;;;;;;;;;;;;7.06;42.48;102068.19;5012170;28;19952;-83
2022/10/21 03:20:33;;;;;;;;;;;;;;;7.10;42.32;102069.72;5005920;28;19918;-84
2022/10/21 03:22:58;;;;;;;;;;;;;;;7.08;42.41;102060.94;5011366;28;19921;-83
2022/10/21 03:25:24;;;;;;;;;;;;;;;7.09;42.39;102066.16;5025524;28;19925;-84
2022/10/21 03:27:50;;;;;;;;;;;;;;;6.99;42.87;102067.75;5033689;28;19921;-84
2022/10/21 03:30:15;;;;;;;;;;;;;;;7.02;42.71;102066.69;5006922;28;19928;-85
2022/10/21 03:32:41;;;;;;;;;;;;;;;6.97;42.94;102070.50;5011723;28;19921;-84
2022/10/21 03:35:06;;;;;;;;;;;;;;;6.98;42.90;102072.25;5028053;28;20362;-82
2022/10/21 03:37:33;;;;;;;;;;;;;;;7.02;42.65;102074.69;5010926;28;19922;-83
2022/10/21 03:39:59;;;;;;;;;;;;;;;6.95;43.13;102067.09;5031412;28;19921;-83
2022/10/21 03:42:25;;;;;;;;;;;;;;;6.83;43.28;102065.22;5038481;28;19925;-83
2022/10/21 03:44:50;;;;;;;;;;;;;;;6.85;43.25;102060.66;5022375;28;19921;-84
2022/10/21 03:47:15;;;;;;;;;;;;;;;6.73;43.36;102064.13;5028860;28;19921;-85
2022/10/21 03:49:44;;;;;;;;;;;;;;;6.69;43.68;102055.44;5023515;28;19921;-83
2022/10/21 03:52:10;;;;;;;;;;;;;;;6.60;43.56;102040.03;5039108;28;19925;-82
2022/10/21 03:54:36;;;;;;;;;;;;;;;6.65;43.94;102058.44;5023279;28;19921;-83
2022/10/21 03:57:01;;;;;;;;;;;;;;;6.59;44.02;102056.19;5025406;28;19943;-85
2022/10/21 03:59:26;;;;;;;;;;;;;;;6.63;43.89;102060.38;5019611;28;19926;-83
2022/10/21 04:01:52;;;;;;;;;;;;;;;6.60;44.13;102057.88;5019329;28;19922;-82
2022/10/21 04:04:17;;;;;;;;;;;;;;;6.57;43.99;102066.13;5023535;28;20342;-84
2022/10/21 04:06:44;;;;;;;;;;;;;;;6.57;44.05;102060.75;5025922;28;19952;-85
2022/10/21 04:09:11;;;;;;;;;;;;;;;6.48;44.32;102060.41;5023223;28;19936;-84
2022/10/21 04:11:37;;;;;;;;;;;;;;;6.45;44.42;102057.09;5032940;28;19987;-86
2022/10/21 04:14:03;;;;;;;;;;;;;;;6.42;44.55;102063.50;5031908;28;19921;-86
2022/10/21 04:16:32;;;;;;;;;;;;;;;6.49;44.66;102066.63;5030130;28;19940;-86
2022/10/21 04:18:57;;;;;;;;;;;;;;;6.59;44.59;102075.75;5027612;28;19921;-86
2022/10/21 04:21:23;;;;;;;;;;;;;;;6.58;44.74;102073.16;5029738;28;19986;-85
2022/10/21 04:23:48;;;;;;;;;;;;;;;6.57;44.76;102082.16;5030890;28;19921;-86
2022/10/21 04:26:14;;;;;;;;;;;;;;;6.60;44.81;102076.59;5041778;28;19953;-85
2022/10/21 04:28:39;;;;;;;;;;;;;;;6.62;44.87;102083.53;5039774;28;20047;-85
2022/10/21 04:31:05;;;;;;;;;;;;;;;6.64;44.63;102072.75;5030958;28;20482;-85
2022/10/21 04:33:30;;;;;;;;;;;;;;;6.69;44.32;102071.50;5026361;28;19921;-86
2022/10/21 04:35:57;;;;;;;;;;;;;;;6.67;44.37;102080.56;5026935;28;19929;-84
2022/10/21 04:38:23;;;;;;;;;;;;;;;6.71;44.41;102082.94;5022289;28;19921;-84
2022/10/21 04:40:55;;;;;;;;;;;;;;;6.75;44.77;102075.59;5010012;28;19925;-86
2022/10/21 04:43:20;;;;;;;;;;;;;;;6.81;44.20;102085.84;5031191;28;19933;-83
2022/10/21 04:45:47;;;;;;;;;;;;;;;6.85;44.04;102091.88;5028526;28;19921;-84
2022/10/21 04:48:12;;;;;;;;;;;;;;;6.86;43.81;102082.88;5033182;28;20801;-83
2022/10/21 04:50:38;;;;;;;;;;;;;;;6.87;44.39;102089.97;5013096;28;19921;-84
2022/10/21 04:53:05;;;;;;;;;;;;;;;6.88;44.54;102099.69;5028661;28;19929;-86
2022/10/21 04:55:31;;;;;;;;;;;;;;;6.87;44.11;102093.47;5040701;28;19951;-83
2022/10/21 04:57:57;;;;;;;;;;;;;;;6.87;44.47;102096.16;5011113;28;20361;-84
2022/10/21 05:00:23;;;;;;;;;;;;;;;6.91;44.57;102102.19;5035698;28;19913;-82
2022/10/21 05:02:48;;;;;;;;;;;;;;;6.92;47.71;102110.06;5025531;28;19929;-81
2022/10/21 05:05:14;;;;;;;;;;;;;;;6.83;51.19;102099.97;5033784;28;19928;-82
2022/10/21 05:07:39;;;;;;;;;;;;;;;6.74;54.00;102111.28;5029690;28;19960;-82
2022/10/21 05:10:05;;;;;;;;;;;;;;;6.71;54.73;102109.66;5014904;28;20101;-82
2022/10/21 05:12:30;;;;;;;;;;;;;;;6.76;54.91;102104.88;5044684;28;19917;-83
2022/10/21 05:14:56;;;;;;;;;;;;;;;6.83;55.04;102116.03;5020557;28;19922;-81
2022/10/21 05:17:21;;;;;;;;;;;;;;;6.92;54.73;102118.09;5029408;28;20061;-82
2022/10/21 05:19:46;;;;;;;;;;;;;;;7.07;54.46;102123.38;4992701;28;19922;-82
2022/10/21 05:22:12;;;;;;;;;;;;;;;7.02;53.96;102121.00;5005800;28;19941;-82
2022/10/21 05:24:37;;;;;;;;;;;;;;;6.92;54.08;102123.44;4986588;28;19974;-81
2022/10/21 05:27:03;;;;;;;;;;;;;;;6.90;54.23;102128.03;5002588;28;20008;-83
2022/10/21 05:29:28;;;;;;;;;;;;;;;7.11;53.76;102130.25;5003112;28;19922;-82
2022/10/21 05:31:53;;;;;;;;;;;;;;;7.08;54.16;102128.63;5007205;28;19996;-83
2022/10/21 05:34:19;;;;;;;;;;;;;;;7.33;53.38;102129.69;5002842;28;19940;-83
2022/10/21 05:36:46;;;;;;;;;;;;;;;7.55;52.49;102127.22;5015515;28;20344;-83
2022/10/21 05:39:11;;;;;;;;;;;;;;;8.05;50.69;102130.00;5012766;28;20372;-81
2022/10/21 05:41:37;;;;;;;;;;;;;;;10.93;44.28;102130.34;4993395;28;19917;-82
2022/10/21 05:44:02;;;;;;;;;;;;;;;13.21;39.07;102133.72;4987634;28;19922;-81
2022/10/21 05:46:29;;;;;;;;;;;;;;;15.30;35.46;102131.56;5006106;28;19917;-82
2022/10/21 05:48:55;;;;;;;;;;;;;;;16.90;31.40;102128.38;4983710;28;19926;-82
2022/10/21 05:51:25;;;;;;;;;;;;;;;18.48;29.14;102135.19;5003972;28;19964;-84
2022/10/21 05:53:54;;;;;;;;;;;;;;;20.13;26.61;102130.13;5003955;28;19922;-82
2022/10/21 05:56:19;;;;;;;;;;;;;;;21.50;25.07;102130.25;5009622;28;19917;-82
2022/10/21 05:58:46;;;;;;;;;;;;;;;22.67;23.35;102136.88;5003596;28;20336;-83
2022/10/21 06:01:12;;;;;;;;;;;;;;;23.58;21.80;102141.91;4988009;28;19928;-83
2022/10/21 06:03:38;;;;;;;;;;;;;;;24.21;21.41;102139.50;4984795;28;19921;-80
2022/10/21 06:06:06;;;;;;;;;;;;;;;24.78;20.26;102138.88;4991408;28;19929;-82
2022/10/21 06:08:32;;;;;;;;;;;;;;;24.95;20.30;102129.00;5009863;28;19921;-82
2022/10/21 06:11:04;;;;;;;;;;;;;;;25.71;18.62;102135.44;5003157;28;19929;-82
2022/10/21 06:13:32;;;;;;;;;;;;;;;26.45;17.53;102132.75;5011677;28;19921;-82
2022/10/21 06:15:58;;;;;;;;;;;;;;;26.80;17.58;102132.09;5005060;28;19918;-83
2022/10/21 06:18:24;;;;;;;;;;;;;;;27.24;17.12;102132.75;5021693;28;19921;-84
2022/10/21 06:20:50;;;;;;;;;;;;;;;27.67;16.75;102128.81;5025636;28;20364;-81
2022/10/21 06:23:15;;;;;;;;;;;;;;;28.31;15.45;102138.03;5027411;28;20361;-82
2022/10/21 06:25:53;;;;;;;;;;;;;;;28.57;15.72;102136.66;5018583;28;20390;-82
2022/10/21 06:28:20;;;;;;;;;;;;;;;28.85;14.99;102134.16;5028058;28;20386;-83
2022/10/21 06:30:46;;;;;;;;;;;;;;;29.58;14.37;102129.63;5031000;28;20468;-82
2022/10/21 06:33:11;;;;;;;;;;;;;;;29.61;14.17;102129.94;5011778;28;19956;-83
2022/10/21 06:35:37;;;;;;;;;;;;;;;29.79;13.90;102123.31;5029145;28;19923;-83
2022/10/21 06:38:02;;;;;;;;;;;;;;;29.90;14.26;102120.69;5030281;28;19926;-82
2022/10/21 06:40:28;;;;;;;;;;;;;;;30.49;13.69;102124.53;5019728;28;20347;-84
2022/10/21 06:42:54;;;;;;;;;;;;;;;30.55;13.65;102127.38;5035119;28;19933;-84
2022/10/21 06:45:20;;;;;;;;;;;;;;;30.66;13.11;102115.28;5022183;28;20418;-84
2022/10/21 06:47:45;;;;;;;;;;;;;;;30.64;12.82;102114.72;5032705;28;19928;-83
2022/10/21 06:50:12;;;;;;;;;;;;;;;30.78;12.90;102121.53;5026453;28;19976;-83
2022/10/21 06:52:38;;;;;;;;;;;;;;;30.96;12.82;102116.75;5034666;28;19931;-84
2022/10/21 06:55:04;;;;;;;;;;;;;;;31.34;12.30;102110.94;5030272;28;19924;-82
2022/10/21 06:57:29;;;;;;;;;;;;;;;31.72;12.28;102119.31;5017573;28;20300;-84
2022/10/21 06:59:58;;;;;;;;;;;;;;;32.06;11.97;102125.38;5010692;28;20349;-84
2022/10/21 07:02:23;;;;;;;;;;;;;;;31.92;12.03;102121.38;5034625;28;19924;-84
2022/10/21 07:04:51;;;;;;;;;;;;;;;32.25;12.29;102127.69;5009927;28;19996;-82
2022/10/21 07:07:17;;;;;;;;;;;;;;;32.26;12.57;102119.03;5016960;28;19923;-83
2022/10/21 07:09:42;;;;;;;;;;;;;;;31.22;13.43;102126.13;5008369;28;20008;-83
2022/10/21 07:12:07;;;;;;;;;;;;;;;31.41;13.56;102118.25;5031405;28;19921;-83
2022/10/21 07:14:33;;;;;;;;;;;;;;;31.22;13.85;102118.63;5037886;28;19917;-84
2022/10/21 07:16:58;;;;;;;;;;;;;;;30.62;14.18;102123.28;5032700;28;19974;-84
2022/10/21 07:19:25;;;;;;;;;;;;;;;29.01;15.32;102125.06;5039560;28;19975;-84
2022/10/21 07:21:50;;;;;;;;;;;;;;;28.53;15.53;102123.56;5038822;28;20708;-84
2022/10/21 07:24:19;;;;;;;;;;;;;;;28.44;15.85;102119.47;5007275;28;19922;-83
2022/10/21 07:26:46;;;;;;;;;;;;;;;28.33;15.77;102116.53;5024531;28;20024;-84
2022/10/21 07:29:13;;;;;;;;;;;;;;;28.40;15.49;102119.97;5028571;28;19921;-84
2022/10/21 07:31:38;;;;;;;;;;;;;;;28.23;15.63;102120.97;5029317;28;20350;-82
2022/10/21 07:34:04;;;;;;;;;;;;;;;28.39;15.30;102123.81;5009975;28;19958;-84
2022/10/21 07:36:32;;;;;;;;;;;;;;;28.60;14.72;102124.25;5028366;28;19951;-84
2022/10/21 07:39:01;;;;;;;;;;;;;;;29.15;14.48;102120.91;5028810;28;19943;-84
2022/10/21 07:41:33;;;;;;;;;;;;;;;29.77;13.92;102116.34;5039711;28;19927;-84
2022/10/21 07:43:59;;;;;;;;;;;;;;;30.43;13.30;102122.78;5027754;28;19921;-84
2022/10/21 07:46:24;;;;;;;;;;;;;;;29.32;14.27;102125.59;5026999;28;20286;-85
2022/10/21 07:48:49;;;;;;;;;;;;;;;29.64;13.94;102117.50;5010978;28;19920;-84
2022/10/21 07:51:17;;;;;;;;;;;;;;;29.47;13.68;102117.53;5008722;28;20304;-85
2022/10/21 07:53:42;;;;;;;;;;;;;;;28.02;14.64;102123.31;5007860;28;20011;-84
2022/10/21 07:56:09;;;;;;;;;;;;;;;27.42;15.37;102123.50;5036485;28;20020;-84
2022/10/21 07:58:39;;;;;;;;;;;;;;;26.70;15.82;102122.47;5006965;28;19921;-83
2022/10/21 08:01:05;;;;;;;;;;;;;;;27.41;14.95;102117.16;5025790;28;19924;-84
2022/10/21 08:03:31;;;;;;;;;;;;;;;28.58;13.96;102118.13;5006521;28;19921;-84
2022/10/21 08:05:58;;;;;;;;;;;;;;;29.31;14.13;102123.91;5005576;28;19982;-83
2022/10/21 08:08:23;;;;;;;;;;;;;;;28.40;14.20;102125.50;5024920;28;19960;-84
2022/10/21 08:10:49;;;;;;;;;;;;;;;28.62;13.88;102131.22;5043893;28;19956;-84
2022/10/21 08:13:15;;;;;;;;;;;;;;;28.82;14.14;102121.63;4996426;28;19925;-84
2022/10/21 08:15:43;;;;;;;;;;;;;;;28.37;14.91;102119.63;5022431;28;19964;-83
2022/10/21 08:18:10;;;;;;;;;;;;;;;28.89;14.85;102107.63;5006845;28;19926;-82
2022/10/21 08:20:38;;;;;;;;;;;;;;;29.48;14.28;102113.69;5001437;28;20378;-84
2022/10/21 08:23:05;;;;;;;;;;;;;;;29.99;14.50;102108.91;5015295;28;19929;-84
2022/10/21 08:25:31;;;;;;;;;;;;;;;29.73;14.59;102116.00;5014170;28;19918;-85
2022/10/21 08:27:56;;;;;;;;;;;;;;;28.96;14.84;102117.50;5001626;28;20374;-84
2022/10/21 08:30:21;;;;;;;;;;;;;;;30.09;14.30;102109.03;5015552;28;20398;-84
2022/10/21 08:32:48;;;;;;;;;;;;;;;30.01;13.86;102101.16;5013886;28;19921;-85
2022/10/21 08:35:14;;;;;;;;;;;;;;;31.88;12.88;102100.78;5005322;28;19918;-84
2022/10/21 08:37:39;;;;;;;;;;;;;;;32.85;12.11;102103.94;4992257;28;20380;-84
2022/10/21 08:40:06;;;;;;;;;;;;;;;32.12;12.72;102109.53;5004860;28;20190;-84
2022/10/21 08:42:31;;;;;;;;;;;;;;;31.84;13.06;102116.31;5009161;28;19922;-85
2022/10/21 08:45:01;;;;;;;;;;;;;;;31.68;13.58;102107.91;5003882;28;20032;-85
2022/10/21 08:47:32;;;;;;;;;;;;;;;31.85;13.27;102104.94;5006003;28;19921;-84
2022/10/21 08:49:58;;;;;;;;;;;;;;;31.64;13.66;102114.25;5046842;28;19916;-84
2022/10/21 08:52:30;;;;;;;;;;;;;;;31.63;13.79;102109.78;5012693;28;19929;-84
2022/10/21 08:54:57;;;;;;;;;;;;;;;31.19;14.33;102108.06;5000857;28;20035;-83
2022/10/21 08:57:23;;;;;;;;;;;;;;;29.92;14.88;102102.69;5018090;28;19960;-87
2022/10/21 08:59:49;;;;;;;;;;;;;;;31.75;13.59;102102.94;5014085;28;19922;-84
2022/10/21 09:02:46;;;;;;;;;;;;;;;32.96;12.80;102100.03;5014067;28;20012;-84
2022/10/21 09:05:17;;;;;;;;;;;;;;;32.40;13.04;102105.47;5004044;28;19944;-83
2022/10/21 09:07:52;;;;;;;;;;;;;;;32.84;12.87;102110.59;5012038;28;19921;-84
2022/10/21 09:10:32;;;;;;;;;;;;;;;31.28;13.94;102102.84;5005247;28;19921;-84
2022/10/21 09:13:03;;;;;;;;;;;;;;;31.03;14.24;102100.69;5022759;28;20010;-85
2022/10/21 09:15:47;;;;;;;;;;;;;;;33.27;12.90;102097.31;5017305;28;20044;-83
2022/10/21 09:18:25;;;;;;;;;;;;;;;34.89;11.60;102096.97;5016880;28;20705;-83
2022/10/21 09:20:52;;;;;;;;;;;;;;;34.31;11.51;102090.34;5026893;28;20039;-83
2022/10/21 09:23:18;;;;;;;;;;;;;;;32.44;13.21;102092.69;5027779;28;20032;-83
2022/10/21 09:25:43;;;;;;;;;;;;;;;32.99;12.77;102096.72;5010984;28;19926;-83
2022/10/21 09:28:11;;;;;;;;;;;;;;;32.04;13.47;102094.22;5022390;28;19928;-84
2022/10/21 09:30:37;;;;;;;;;;;;;;;33.31;12.63;102090.03;5011394;28;19975;-84
2022/10/21 09:33:02;;;;;;;;;;;;;;;31.07;13.81;102099.03;5008561;28;20362;-83
2022/10/21 09:35:36;;;;;;;;;;;;;;;31.58;14.15;102091.13;5028268;28;20353;-82
2022/10/21 09:38:11;;;;;;;;;;;;;;;32.33;13.64;102096.53;5030449;28;19921;-82
2022/10/21 09:40:36;;;;;;;;;;;;;;;32.58;13.47;102085.50;5031223;28;19924;-81
2022/10/21 09:43:01;;;;;;;;;;;;;;;33.11;13.03;102084.50;5018027;28;20126;-82
2022/10/21 09:45:34;;;;;;;;;;;;;;;30.76;14.40;102090.41;5029456;28;20400;-83
2022/10/21 09:48:04;;;;;;;;;;;;;;;28.94;16.00;102085.59;5031608;28;20020;-84
2022/10/21 09:50:29;;;;;;;;;;;;;;;30.83;15.07;102074.38;5046419;28;19975;-84
2022/10/21 09:53:34;;;;;;;;;;;;;;;31.23;13.89;102067.50;5029347;28;20513;-85
2022/10/21 09:56:02;;;;;;;;;;;;;;;30.21;14.36;102064.53;5026769;28;19918;-84
2022/10/21 09:58:28;;;;;;;;;;;;;;;30.14;14.50;102068.63;5010124;28;20417;-85
2022/10/21 10:00:54;;;;;;;;;;;;;;;30.27;14.78;102059.91;5031584;28;19917;-84
2022/10/21 10:03:32;;;;;;;;;;;;;;;30.53;14.61;102068.50;5029224;28;19922;-84
2022/10/21 10:06:01;;;;;;;;;;;;;;;30.56;14.71;102059.69;5034357;28;19921;-85
2022/10/21 10:08:28;;;;;;;;;;;;;;;30.13;14.97;102058.59;5031740;28;19928;-84
2022/10/21 10:11:09;;;;;;;;;;;;;;;29.74;15.24;102059.50;5025594;28;19978;-84
2022/10/21 10:13:35;;;;;;;;;;;;;;;30.61;14.70;102057.78;5027612;28;20397;-83
2022/10/21 10:16:10;;;;;;;;;;;;;;;32.00;13.41;102059.69;5014347;28;19933;-84
2022/10/21 10:18:35;;;;;;;;;;;;;;;31.37;13.87;102058.72;5030886;28;19929;-84
2022/10/21 10:21:04;;;;;;;;;;;;;;;31.99;13.34;102046.91;5022214;28;19923;-85
2022/10/21 10:23:30;;;;;;;;;;;;;;;32.95;12.82;102053.81;5015976;28;19926;-84
2022/10/21 10:25:56;;;;;;;;;;;;;;;32.18;13.28;102056.44;5046288;28;19925;-84
2022/10/21 10:28:24;;;;;;;;;;;;;;;31.82;13.81;102052.66;5035701;28;20003;-83
2022/10/21 10:30:53;;;;;;;;;;;;;;;31.40;13.99;102055.41;5042313;28;19917;-82
2022/10/21 10:33:28;;;;;;;;;;;;;;;30.55;14.55;102049.66;5015570;28;20003;-86
2022/10/21 10:35:55;;;;;;;;;;;;;;;30.37;14.45;102048.94;5012403;28;19924;-84
2022/10/21 10:38:34;;;;;;;;;;;;;;;29.53;15.53;102050.03;5028938;28;19925;-85
2022/10/21 10:41:37;;;;;;;;;;;;;;;29.07;16.17;102043.78;5031924;28;19975;-85
2022/10/21 10:44:09;;;;;;;;;;;;;;;30.19;15.42;102029.84;5030261;28;20302;-84
2022/10/21 10:46:35;;;;;;;;;;;;;;;28.60;16.07;102027.44;5028882;28;19917;-84
2022/10/21 10:49:05;;;;;;;;;;;;;;;28.55;16.14;102027.34;5029806;28;19921;-84
2022/10/21 10:51:35;;;;;;;;;;;;;;;29.70;15.30;102021.47;5005607;28;19967;-83
2022/10/21 10:54:02;;;;;;;;;;;;;;;29.21;15.46;102022.13;5029141;28;19943;-83
2022/10/21 10:56:28;;;;;;;;;;;;;;;30.55;14.72;102016.38;5031551;28;19974;-86
2022/10/21 10:59:11;;;;;;;;;;;;;;;30.39;14.60;102019.00;5027214;28;19925;-86
2022/10/21 11:01:38;;;;;;;;;;;;;;;31.69;13.63;102020.59;5020794;28;19918;-85
2022/10/21 11:04:06;;;;;;;;;;;;;;;30.78;13.79;102018.81;5037167;28;19936;-84
2022/10/21 11:06:39;;;;;;;;;;;;;;;32.00;13.31;102020.75;5016649;28;20004;-85
2022/10/21 11:09:06;;;;;;;;;;;;;;;30.20;14.50;102009.31;5018575;28;19922;-83
2022/10/21 11:11:39;;;;;;;;;;;;;;;30.44;15.03;102005.19;5045200;28;19924;-85
2022/10/21 11:14:10;;;;;;;;;;;;;;;31.55;14.30;102011.09;5012374;28;20300;-84
2022/10/21 11:16:35;;;;;;;;;;;;;;;31.84;13.67;102014.25;5028214;28;20361;-84
2022/10/21 11:19:17;;;;;;;;;;;;;;;30.03;14.61;102013.00;5028684;28;19932;-85
2022/10/21 11:22:00;;;;;;;;;;;;;;;31.40;13.86;102010.94;5043634;28;19921;-85
2022/10/21 11:24:28;;;;;;;;;;;;;;;27.98;16.88;102022.63;5005859;28;20494;-82
2022/10/21 11:26:53;;;;;;;;;;;;;;;26.60;18.37;102019.28;5028730;28;19924;-83
2022/10/21 11:29:19;;;;;;;;;;;;;;;25.37;19.14;102013.78;5029326;28;19920;-84
2022/10/21 11:32:04;;;;;;;;;;;;;;;26.32;18.74;102010.53;5030578;28;19913;-84
2022/10/21 11:34:50;;;;;;;;;;;;;;;26.21;18.69;102003.06;5021221;28;19969;-83
2022/10/21 11:37:18;;;;;;;;;;;;;;;27.22;17.69;102006.00;5033740;28;19929;-83
2022/10/21 11:40:04;;;;;;;;;;;;;;;27.52;17.33;102000.34;5010751;28;20097;-83
2022/10/21 11:42:36;;;;;;;;;;;;;;;26.71;18.35;101999.19;5016967;28;20012;-83
2022/10/21 11:45:11;;;;;;;;;;;;;;;24.67;20.43;101986.41;5025178;28;19999;-84
2022/10/21 11:47:45;;;;;;;;;;;;;;;24.18;21.30;101982.47;5032442;28;19928;-84
2022/10/21 11:50:14;;;;;;;;;;;;;;;21.66;24.57;102000.50;5025139;28;19923;-82
2022/10/21 11:53:10;;;;;;;;;;;;;;;21.31;24.89;101994.16;5045038;28;20399;-84
2022/10/21 11:55:42;;;;;;;;;;;;;;;21.40;25.29;101984.75;5014692;28;20082;-83
2022/10/21 11:58:16;;;;;;;;;;;;;;;19.75;27.68;101977.41;5028822;28;19928;-83
2022/10/21 12:00:53;;;;;;;;;;;;;;;19.72;27.83;101975.91;5020632;28;19961;-83
2022/10/21 12:03:18;;;;;;;;;;;;;;;19.53;27.94;101977.31;5012214;28;19957;-84
2022/10/21 12:05:53;;;;;;;;;;;;;;;19.57;27.97;101981.34;5025938;28;19917;-81
2022/10/21 12:08:35;;;;;;;;;;;;;;;19.07;28.82;101977.44;4996519;28;20418;-83
2022/10/21 12:11:15;;;;;;;;;;;;;;;18.96;29.19;101970.56;5044260;28;19924;-84
2022/10/21 12:13:40;;;;;;;;;;;;;;;18.84;29.32;101961.13;5024162;28;19922;-84
2022/10/21 12:16:09;;;;;;;;;;;;;;;18.48;29.86;101966.34;5028642;28;20304;-83
2022/10/21 12:18:51;;;;;;;;;;;;;;;17.55;30.22;101964.44;5018479;28;20067;-85
2022/10/21 12:21:17;;;;;;;;;;;;;;;18.09;30.23;101967.28;4992392;28;19921;-84
2022/10/21 12:23:42;;;;;;;;;;;;;;;18.11;30.24;101957.06;5006187;28;19932;-84
2022/10/21 12:26:15;;;;;;;;;;;;;;;18.43;29.94;101958.72;4997327;28;19925;-84
2022/10/21 12:28:59;;;;;;;;;;;;;;;18.60;29.68;101956.72;5006553;28;20404;-84
2022/10/21 12:31:24;;;;;;;;;;;;;;;18.47;30.27;101951.03;5006132;28;19921;-84
2022/10/21 12:33:50;;;;;;;;;;;;;;;17.70;30.82;101949.94;4992900;28;19933;-84
2022/10/21 12:36:38;;;;;;;;;;;;;;;17.64;31.50;101950.63;5010116;28;19957;-84
2022/10/21 12:39:03;;;;;;;;;;;;;;;17.88;30.92;101955.13;5012948;28;19921;-84
2022/10/21 12:41:33;;;;;;;;;;;;;;;17.95;31.13;101948.97;4988200;28;19922;-84
2022/10/21 12:44:04;;;;;;;;;;;;;;;17.77;31.31;101952.78;5010134;28;19922;-85
2022/10/21 12:46:50;;;;;;;;;;;;;;;17.37;32.18;101954.63;4991837;28;19926;-83